Hyundai Republic — A8IL3 — position and weather

sailwx.info

Track history (hours):
 
Tides and Currents Weather Stations Pressure Air Temp Water Temp Dewpoint Dewpoint Depression Visibility Wind Speed Wind Dir Waves Ship Positions

Hyundai Republic

Last reported at 2015-Jul-27 02:17 UTC. Time now 2015-Jul-29 18:00 UTC.
Position S 33°02' E 017°38'.

Length 305 m; draft 12 m.

Type: Ship (hazmat cat A). MMSI: 636090994.

Date/timePositionNaut miles runAvg speedWind from/ knotsBaromVisibWave heightAir tempDewpointWater temp
2015-Jul-27 02:17S 33°02' E 017°38'1618.8
2015-Jul-27 01:28S 33°17' E 017°45'52 8.4
2015-Jul-26 19:15S 33°55' E 018°27'0 0.0
2015-Jul-26 18:33S 33°55' E 018°27'0 0.0
2015-Jul-26 17:33S 33°55' E 018°27'0 0.0
2015-Jul-25 10:10S 33°55' E 018°27'3 3.8
2015-Jul-25 09:28S 33°52' E 018°26'2 1.7
2015-Jul-25 08:33S 33°51' E 018°26'0 0.1
2015-Jul-25 07:30S 33°51' E 018°26'0 0.0
2015-Jul-25 04:33S 33°51' E 018°26'0 0.0
2015-Jul-25 03:30S 33°51' E 018°26'0 0.0
2015-Jul-25 02:33S 33°51' E 018°26'0 0.0
2015-Jul-25 01:11S 33°51' E 018°26'0 0.0
2015-Jul-24 23:32S 33°51' E 018°26'0 0.0
2015-Jul-24 22:17S 33°51' E 018°26'0 0.0
2015-Jul-24 21:29S 33°51' E 018°26'0 0.1
2015-Jul-24 20:23S 33°51' E 018°26'0 0.1
2015-Jul-24 19:17S 33°51' E 018°26'0 0.0
2015-Jul-24 15:23S 33°51' E 018°26'0 0.0
2015-Jul-24 14:32S 33°51' E 018°26'10 1.6
2015-Jul-24 08:12S 33°51' E 018°14'8 2.5
2015-Jul-24 05:12S 33°58' E 018°10'27 7.5
2015-Jul-24 01:33S 34°25' E 018°13'  
Track history (hours):
 
Tides and Currents Weather Stations Pressure Air Temp Water Temp Dewpoint Dewpoint Depression Visibility Wind Speed Wind Dir Waves Ship Positions

Hyundai Republic

Last reported at 2015-Jul-27 02:17 UTC. Time now 2015-Jul-29 18:00 UTC.
Position S 33°02' E 017°38'.

Length 305 m; draft 12 m.

Type: Ship (hazmat cat A). MMSI: 636090994.

Date/timePositionNaut miles runAvg speedWind from/ knotsBaromVisibWave heightAir tempDewpointWater temp
2015-Jul-27 02:17S 33°02' E 017°38'1618.8
2015-Jul-27 01:28S 33°17' E 017°45'52 8.4
2015-Jul-26 19:15S 33°55' E 018°27'0 0.0
2015-Jul-26 18:33S 33°55' E 018°27'0 0.0
2015-Jul-26 17:33S 33°55' E 018°27'0 0.0
2015-Jul-25 10:10S 33°55' E 018°27'3 3.8
2015-Jul-25 09:28S 33°52' E 018°26'2 1.7
2015-Jul-25 08:33S 33°51' E 018°26'0 0.1
2015-Jul-25 07:30S 33°51' E 018°26'0 0.0
2015-Jul-25 04:33S 33°51' E 018°26'0 0.0
2015-Jul-25 03:30S 33°51' E 018°26'0 0.0
2015-Jul-25 02:33S 33°51' E 018°26'0 0.0
2015-Jul-25 01:11S 33°51' E 018°26'0 0.0
2015-Jul-24 23:32S 33°51' E 018°26'0 0.0
2015-Jul-24 22:17S 33°51' E 018°26'0 0.0
2015-Jul-24 21:29S 33°51' E 018°26'0 0.1
2015-Jul-24 20:23S 33°51' E 018°26'0 0.1
2015-Jul-24 19:17S 33°51' E 018°26'0 0.0
2015-Jul-24 15:23S 33°51' E 018°26'0 0.0
2015-Jul-24 14:32S 33°51' E 018°26'10 1.6
2015-Jul-24 08:12S 33°51' E 018°14'8 2.5
2015-Jul-24 05:12S 33°58' E 018°10'27 7.5
2015-Jul-24 01:33S 34°25' E 018°13'  

Dump ship's entire track history